createdAt,value
2022-11-15T00:00:04.477Z,100792.97
2022-11-15T00:02:31.176Z,100782.84
2022-11-15T00:04:57.874Z,100786.75
2022-11-15T00:07:53.597Z,100791.06
2022-11-15T00:10:10.940Z,100794.16
2022-11-15T00:12:37.572Z,100788.50
2022-11-15T00:15:04.353Z,100792.38
2022-11-15T00:17:30.923Z,100792.84
2022-11-15T00:19:57.454Z,100794.13
2022-11-15T00:22:23.979Z,100787.09
2022-11-15T00:24:50.483Z,100779.69
2022-11-15T00:27:16.987Z,100783.00
2022-11-15T00:29:44.337Z,100792.50
2022-11-15T00:32:11.304Z,100790.34
2022-11-15T00:34:38.021Z,100791.09
2022-11-15T00:37:04.530Z,100785.69
2022-11-15T00:39:31.057Z,100788.56
2022-11-15T00:41:57.613Z,100785.34
2022-11-15T00:44:24.180Z,100785.59
2022-11-15T00:46:50.627Z,100775.00
2022-11-15T00:49:17.110Z,100770.34
2022-11-15T00:51:43.563Z,100762.22
2022-11-15T00:54:10.010Z,100756.91
2022-11-15T00:56:36.601Z,100760.38
2022-11-15T00:59:03.157Z,100751.88
2022-11-15T01:01:29.826Z,100745.94
2022-11-15T01:04:01.107Z,100747.22
2022-11-15T01:06:28.089Z,100760.31
2022-11-15T01:08:54.560Z,100757.91
2022-11-15T01:11:21.228Z,100737.72
2022-11-15T01:13:47.776Z,100754.31
2022-11-15T01:16:17.974Z,100752.88
2022-11-15T01:18:45.288Z,100762.28
2022-11-15T01:21:16.581Z,100760.09
2022-11-15T01:23:43.436Z,100749.50
2022-11-15T01:26:13.248Z,100749.50
2022-11-15T01:28:41.996Z,100752.19
2022-11-15T01:31:14.593Z,100743.00
2022-11-15T01:33:41.447Z,100738.97
2022-11-15T01:36:20.122Z,100741.00
2022-11-15T01:38:46.602Z,100730.19
2022-11-15T01:41:18.890Z,100738.13
2022-11-15T01:43:50.085Z,100738.78
2022-11-15T01:46:22.484Z,100744.09
2022-11-15T01:48:51.134Z,100733.69
2022-11-15T01:51:20.507Z,100729.78
2022-11-15T01:53:50.577Z,100728.13
2022-11-15T01:56:24.149Z,100741.19
2022-11-15T01:58:52.666Z,100740.13
2022-11-15T02:01:19.627Z,100733.16
2022-11-15T02:04:25.004Z,100744.44
2022-11-15T02:06:51.561Z,100743.16
2022-11-15T02:09:18.866Z,100740.47
2022-11-15T02:11:47.443Z,100739.22
2022-11-15T02:14:17.145Z,100740.88
2022-11-15T02:16:46.349Z,100734.53
2022-11-15T02:19:18.551Z,100735.38
2022-11-15T02:21:59.214Z,100739.41
2022-11-15T02:24:42.474Z,100729.88
2022-11-15T02:27:53.787Z,100735.38
2022-11-15T02:30:27.846Z,100729.44
2022-11-15T02:33:15.687Z,100737.59
2022-11-15T02:35:56.538Z,100721.88
2022-11-15T02:38:48.397Z,100739.88
2022-11-15T02:41:21.047Z,100721.34
2022-11-15T02:43:58.236Z,100715.22
2022-11-15T02:46:56.233Z,100708.28
2022-11-15T02:49:26.176Z,100713.38
2022-11-15T02:51:54.099Z,100712.19
2022-11-15T02:54:24.670Z,100717.72
2022-11-15T02:56:55.183Z,100711.16
2022-11-15T02:59:42.724Z,100710.16
2022-11-15T03:02:38.278Z,100702.97
2022-11-15T03:05:23.127Z,100704.81
2022-11-15T03:08:20.343Z,100710.09
2022-11-15T03:11:11.905Z,100697.44
2022-11-15T03:13:59.435Z,100700.72
2022-11-15T03:16:34.906Z,100702.34
2022-11-15T03:19:10.464Z,100702.97
2022-11-15T03:21:40.473Z,100696.81
2022-11-15T03:24:09.659Z,100705.41
2022-11-15T03:26:40.349Z,100705.59
2022-11-15T03:29:18.450Z,100712.09
2022-11-15T03:31:50.834Z,100705.34
2022-11-15T03:34:32.504Z,100720.66
2022-11-15T03:36:59.151Z,100710.06
2022-11-15T03:39:27.128Z,100706.38
2022-11-15T03:42:15.226Z,100710.22
2022-11-15T03:44:53.188Z,100703.06
2022-11-15T03:47:30.628Z,100703.81
2022-11-15T03:50:03.010Z,100696.66
2022-11-15T03:52:34.553Z,100698.47
2022-11-15T03:55:03.468Z,100694.34
2022-11-15T03:57:30.177Z,100698.16
2022-11-15T03:59:56.704Z,100706.06
2022-11-15T04:02:23.162Z,100708.66
2022-11-15T04:04:49.622Z,100710.56
2022-11-15T04:07:16.200Z,100702.38
2022-11-15T04:10:01.953Z,100705.88
2022-11-15T04:12:31.835Z,100708.69
2022-11-15T04:15:09.063Z,100709.28
2022-11-15T04:17:36.723Z,100712.28
2022-11-15T04:20:27.193Z,100713.69
2022-11-15T04:23:13.372Z,100712.22
2022-11-15T04:25:40.479Z,100711.03
2022-11-15T04:28:06.955Z,100711.69
2022-11-15T04:30:33.487Z,100712.66
2022-11-15T04:33:00.214Z,100719.78
2022-11-15T04:35:26.784Z,100717.13
2022-11-15T04:37:53.571Z,100728.34
2022-11-15T04:40:20.117Z,100721.63
2022-11-15T04:42:46.559Z,100714.06
2022-11-15T04:45:13.051Z,100718.53
2022-11-15T04:47:39.532Z,100716.47
2022-11-15T04:50:06.692Z,100714.28
2022-11-15T04:52:33.213Z,100706.47
2022-11-15T04:55:03.649Z,100713.31
2022-11-15T04:57:33.277Z,100719.38
2022-11-15T04:59:59.833Z,100710.97
2022-11-15T05:02:46.259Z,100703.34
2022-11-15T05:05:12.770Z,100703.72
2022-11-15T05:07:39.392Z,100711.41
2022-11-15T05:10:05.970Z,100712.38
2022-11-15T05:12:32.715Z,100704.63
2022-11-15T05:14:59.199Z,100710.75
2022-11-15T05:17:25.713Z,100710.88
2022-11-15T05:19:52.968Z,100712.22
2022-11-15T05:22:20.417Z,100713.16
2022-11-15T05:24:46.932Z,100711.50
2022-11-15T05:27:13.402Z,100714.50
2022-11-15T05:29:39.942Z,100714.88
2022-11-15T05:32:06.964Z,100713.69
2022-11-15T05:34:33.668Z,100699.03
2022-11-15T05:37:00.505Z,100705.16
2022-11-15T05:39:27.095Z,100706.13
2022-11-15T05:42:00.385Z,100705.03
2022-11-15T05:44:27.387Z,100701.50
2022-11-15T05:46:56.024Z,100694.66
2022-11-15T05:49:27.961Z,100701.47
2022-11-15T05:51:55.016Z,100707.78
2022-11-15T05:54:24.214Z,100709.41
2022-11-15T05:56:50.897Z,100704.94
2022-11-15T05:59:18.042Z,100711.69
2022-11-15T06:01:44.604Z,100710.50
2022-11-15T06:04:11.119Z,100709.78
2022-11-15T06:06:37.592Z,100703.69
2022-11-15T06:09:04.081Z,100696.13
2022-11-15T06:11:30.519Z,100695.47
2022-11-15T06:13:57.572Z,100688.13
2022-11-15T06:16:24.084Z,100693.03
2022-11-15T06:18:50.620Z,100696.09
2022-11-15T06:21:17.064Z,100694.28
2022-11-15T06:23:43.658Z,100694.00
2022-11-15T06:26:10.295Z,100699.47
2022-11-15T06:28:36.833Z,100697.66
2022-11-15T06:31:05.672Z,100690.81
2022-11-15T06:33:32.565Z,100678.34
2022-11-15T06:36:04.607Z,100682.63
2022-11-15T06:38:31.334Z,100684.28
2022-11-15T06:41:07.350Z,100677.44
2022-11-15T06:43:35.036Z,100694.09
2022-11-15T06:46:05.948Z,100688.06
2022-11-15T06:48:33.664Z,100678.38
2022-11-15T06:51:01.967Z,100678.50
2022-11-15T06:53:29.347Z,100686.50
2022-11-15T06:56:00.559Z,100690.75
2022-11-15T06:58:27.180Z,100689.03
2022-11-15T07:00:53.794Z,100687.19
2022-11-15T07:03:20.296Z,100695.44
2022-11-15T07:05:57.431Z,100691.78
2022-11-15T07:08:27.454Z,100689.66
2022-11-15T07:10:53.929Z,100690.47
2022-11-15T07:13:20.413Z,100681.91
2022-11-15T07:15:46.951Z,100687.28
2022-11-15T07:18:13.435Z,100696.31
2022-11-15T07:20:40.753Z,100710.53
2022-11-15T07:23:07.361Z,100700.25
2022-11-15T07:25:34.286Z,100708.19
2022-11-15T07:28:01.804Z,100701.25
2022-11-15T07:30:28.974Z,100701.06
2022-11-15T07:33:00.173Z,100699.72
2022-11-15T07:35:27.859Z,100700.84
2022-11-15T07:38:02.609Z,100687.66
2022-11-15T07:40:32.677Z,100672.00
2022-11-15T07:43:07.876Z,100668.72
2022-11-15T07:45:35.266Z,100669.19
2022-11-15T07:48:02.089Z,100660.63
2022-11-15T07:50:30.881Z,100663.19
2022-11-15T07:52:59.180Z,100661.66
2022-11-15T07:55:28.231Z,100652.09
2022-11-15T07:58:00.703Z,100652.38
2022-11-15T08:00:27.149Z,100641.13
2022-11-15T08:02:53.760Z,100646.50
2022-11-15T08:05:20.343Z,100650.22
2022-11-15T08:07:46.785Z,100646.41
2022-11-15T08:10:13.263Z,100640.75
2022-11-15T08:12:39.773Z,100656.22
2022-11-15T08:15:06.882Z,100634.47
2022-11-15T08:17:34.891Z,100645.31
2022-11-15T08:20:01.421Z,100645.41
2022-11-15T08:22:28.209Z,100651.16
2022-11-15T08:24:54.738Z,100647.13
2022-11-15T08:27:21.403Z,100645.75
2022-11-15T08:29:49.489Z,100623.88
2022-11-15T08:32:16.156Z,100622.53
2022-11-15T08:34:42.685Z,100627.78
2022-11-15T08:37:09.194Z,100619.91
2022-11-15T08:39:35.763Z,100622.44
2022-11-15T08:42:02.355Z,100608.50
2022-11-15T08:44:28.880Z,100603.47
2022-11-15T08:46:55.465Z,100606.25
2022-11-15T08:49:21.986Z,100600.81
2022-11-15T08:51:48.602Z,100597.97
2022-11-15T08:54:15.311Z,100590.09
2022-11-15T08:56:41.845Z,100591.81
2022-11-15T08:59:08.529Z,100587.56
2022-11-15T09:01:35.131Z,100573.75
2022-11-15T09:04:01.756Z,100586.44
2022-11-15T09:06:28.474Z,100568.59
2022-11-15T09:08:55.134Z,100564.34
2022-11-15T09:11:23.274Z,100565.81
2022-11-15T09:13:50.721Z,100551.75
2022-11-15T09:16:17.426Z,100550.13
2022-11-15T09:18:44.128Z,100543.38
2022-11-15T09:21:11.078Z,100540.72
2022-11-15T09:23:37.650Z,100533.97
2022-11-15T09:26:05.831Z,100538.81
2022-11-15T09:28:34.436Z,100546.38
2022-11-15T09:31:03.267Z,100555.72
2022-11-15T09:33:30.624Z,100555.03
2022-11-15T09:36:08.274Z,100550.63
2022-11-15T09:38:36.025Z,100539.66
2022-11-15T09:41:15.849Z,100530.38
2022-11-15T09:44:25.332Z,100535.94
2022-11-15T09:47:54.979Z,100533.38
2022-11-15T09:50:41.287Z,100523.44
2022-11-15T09:53:14.203Z,100523.22
2022-11-15T09:56:02.615Z,100516.34
2022-11-15T09:58:43.656Z,100511.88
2022-11-15T10:01:30.536Z,100493.53
2022-11-15T10:04:00.189Z,100503.75
2022-11-15T10:06:28.312Z,100499.88
2022-11-15T10:09:13.143Z,100496.81
2022-11-15T10:11:42.023Z,100484.59
2022-11-15T10:14:16.733Z,100485.00
2022-11-15T10:16:58.410Z,100486.81
2022-11-15T10:19:35.037Z,100487.88
2022-11-15T10:22:12.685Z,100487.03
2022-11-15T10:24:43.768Z,100478.28
2022-11-15T10:27:28.250Z,100476.88
2022-11-15T10:29:54.717Z,100460.91
2022-11-15T10:32:22.276Z,100452.22
2022-11-15T10:34:50.595Z,100431.88
2022-11-15T10:37:32.730Z,100431.66
2022-11-15T10:40:28.601Z,100439.63
2022-11-15T10:43:11.937Z,100437.00
2022-11-15T10:45:39.516Z,100432.13
2022-11-15T10:48:15.413Z,100433.38
2022-11-15T10:50:49.585Z,100420.94
2022-11-15T10:53:22.641Z,100426.25
2022-11-15T10:55:53.531Z,100411.53
2022-11-15T10:58:43.864Z,100411.34
2022-11-15T11:01:19.127Z,100412.47
2022-11-15T11:04:00.211Z,100401.00
2022-11-15T11:06:27.248Z,100385.34
2022-11-15T11:08:59.810Z,100388.00
2022-11-15T11:11:46.438Z,100380.38
2022-11-15T11:14:18.850Z,100372.31
2022-11-15T11:17:23.053Z,100380.13
2022-11-15T11:19:55.363Z,100370.81
2022-11-15T11:22:33.833Z,100359.97
2022-11-15T11:25:00.238Z,100354.94
2022-11-15T11:27:40.559Z,100344.94
2022-11-15T11:30:14.498Z,100344.13
2022-11-15T11:33:10.669Z,100338.47
2022-11-15T11:35:59.156Z,100337.34
2022-11-15T11:38:52.883Z,100333.06
2022-11-15T11:41:36.438Z,100341.06
2022-11-15T11:44:26.724Z,100329.16
2022-11-15T11:47:10.040Z,100325.56
2022-11-15T11:49:44.052Z,100338.25
2022-11-15T11:52:23.400Z,100329.94
2022-11-15T11:54:58.665Z,100329.81
2022-11-15T11:57:38.332Z,100306.78
2022-11-15T12:00:21.877Z,100307.34
2022-11-15T12:02:56.278Z,100291.41
2022-11-15T12:05:41.018Z,100285.41
2022-11-15T12:08:29.705Z,100286.69
2022-11-15T12:11:12.065Z,100271.34
2022-11-15T12:13:39.773Z,100266.63
2022-11-15T12:16:12.509Z,100267.84
2022-11-15T12:18:39.419Z,100268.31
2022-11-15T12:21:17.267Z,100274.28
2022-11-15T12:23:51.713Z,100250.81
2022-11-15T12:26:25.962Z,100253.53
2022-11-15T12:29:07.570Z,100252.31
2022-11-15T12:31:35.082Z,100253.38
2022-11-15T12:34:23.447Z,100239.91
2022-11-15T12:36:51.902Z,100240.94
2022-11-15T12:39:19.565Z,100235.66
2022-11-15T12:42:06.115Z,100228.53
2022-11-15T12:44:32.604Z,100220.56
2022-11-15T12:47:03.267Z,100217.72
2022-11-15T12:49:29.860Z,100208.31
2022-11-15T12:51:59.053Z,100213.03
2022-11-15T12:54:25.517Z,100199.97
2022-11-15T12:57:03.909Z,100196.47
2022-11-15T13:00:02.566Z,100191.38
2022-11-15T13:02:40.899Z,100181.59
2022-11-15T13:05:16.471Z,100183.63
2022-11-15T13:07:42.943Z,100170.81
2022-11-15T13:10:15.159Z,100172.41
2022-11-15T13:12:47.583Z,100170.97
2022-11-15T13:15:14.064Z,100162.16
2022-11-15T13:17:44.408Z,100166.44
2022-11-15T13:20:16.584Z,100161.72
2022-11-15T13:23:03.330Z,100155.22
2022-11-15T13:25:53.998Z,100153.16
2022-11-15T13:28:46.370Z,100144.59
2022-11-15T13:31:37.147Z,100140.53
2022-11-15T13:34:50.470Z,100137.06
2022-11-15T13:37:34.716Z,100128.66
2022-11-15T13:40:23.169Z,100123.16
2022-11-15T13:42:50.228Z,100115.81
2022-11-15T13:45:18.961Z,100113.53
2022-11-15T13:47:45.671Z,100096.06
2022-11-15T13:50:13.653Z,100110.72
2022-11-15T13:52:44.701Z,100100.53
2022-11-15T13:55:15.993Z,100094.41
2022-11-15T13:57:46.947Z,100102.16
2022-11-15T14:00:41.221Z,100089.53
2022-11-15T14:03:32.921Z,100090.81
2022-11-15T14:06:19.048Z,100085.91
2022-11-15T14:09:04.122Z,100078.97
2022-11-15T14:11:31.616Z,100077.78
2022-11-15T14:14:10.200Z,100073.91
2022-11-15T14:16:42.620Z,100065.78
2022-11-15T14:19:35.122Z,100069.88
2022-11-15T14:22:26.628Z,100068.47
2022-11-15T14:25:09.277Z,100068.75
2022-11-15T14:27:38.676Z,100065.00
2022-11-15T14:30:27.351Z,100060.56
2022-11-15T14:32:55.503Z,100068.09
2022-11-15T14:35:23.683Z,100081.03
2022-11-15T14:37:50.966Z,100078.63
2022-11-15T14:40:20.852Z,100069.31
2022-11-15T14:42:48.955Z,100049.19
2022-11-15T14:45:18.431Z,100051.06
2022-11-15T14:47:45.602Z,100048.59
2022-11-15T14:50:21.933Z,100062.22
2022-11-15T14:52:49.386Z,100040.72
2022-11-15T14:55:42.026Z,100053.75
2022-11-15T14:58:09.092Z,100046.69
2022-11-15T15:00:40.546Z,100048.34
2022-11-15T15:03:08.116Z,100048.38
2022-11-15T15:05:42.086Z,100045.75
2022-11-15T15:08:09.453Z,100047.63
2022-11-15T15:10:41.060Z,100048.03
2022-11-15T15:13:17.699Z,100033.00
2022-11-15T15:15:44.349Z,100016.94
2022-11-15T15:18:12.276Z,100030.16
2022-11-15T15:20:42.157Z,100022.00
2022-11-15T15:23:20.056Z,100018.75
2022-11-15T15:25:49.792Z,100023.84
2022-11-15T15:28:16.562Z,100011.22
2022-11-15T15:30:43.284Z,100002.03
2022-11-15T15:33:09.876Z,99987.84
2022-11-15T15:35:36.458Z,100000.44
2022-11-15T15:38:04.390Z,99990.28
2022-11-15T15:40:36.962Z,99997.59
2022-11-15T15:43:03.580Z,99994.34
2022-11-15T15:45:30.798Z,99984.19
2022-11-15T15:47:57.645Z,99991.91
2022-11-15T15:50:25.747Z,99995.97
2022-11-15T15:52:54.749Z,100002.06
2022-11-15T15:55:21.793Z,99999.03
2022-11-15T15:57:49.106Z,99981.75
2022-11-15T16:00:17.775Z,99974.84
2022-11-15T16:02:44.414Z,99978.28
2022-11-15T16:05:13.025Z,99999.22
2022-11-15T16:07:41.127Z,99996.78
2022-11-15T16:10:26.490Z,99992.31
2022-11-15T16:12:54.586Z,99985.97
2022-11-15T16:15:23.091Z,99984.56
2022-11-15T16:18:02.117Z,99982.72
2022-11-15T16:20:40.620Z,99990.03
2022-11-15T16:23:12.413Z,99990.63
2022-11-15T16:25:53.982Z,99985.13
2022-11-15T16:28:32.331Z,99988.78
2022-11-15T16:31:13.149Z,99992.81
2022-11-15T16:33:40.726Z,99972.88
2022-11-15T16:36:23.321Z,99981.19
2022-11-15T16:38:52.935Z,99986.31
2022-11-15T16:41:19.833Z,99977.13
2022-11-15T16:43:47.763Z,99980.78
2022-11-15T16:46:25.206Z,99984.00
2022-11-15T16:48:53.815Z,99978.13
2022-11-15T16:51:20.628Z,99968.53
2022-11-15T16:53:48.929Z,99964.69
2022-11-15T16:56:29.756Z,99958.56
2022-11-15T16:59:00.489Z,99962.81
2022-11-15T17:01:29.550Z,99970.94
2022-11-15T17:03:56.587Z,99961.59
2022-11-15T17:06:24.825Z,99964.25
2022-11-15T17:08:51.441Z,99965.03
2022-11-15T17:11:21.096Z,99962.59
2022-11-15T17:13:48.766Z,99967.25
2022-11-15T17:16:17.658Z,99952.97
2022-11-15T17:18:47.573Z,99962.16
2022-11-15T17:21:18.373Z,99964.81
2022-11-15T17:23:45.509Z,99954.81
2022-11-15T17:26:31.999Z,99951.13
2022-11-15T17:29:01.639Z,99960.28
2022-11-15T17:31:30.803Z,99955.34
2022-11-15T17:33:57.394Z,99943.34
2022-11-15T17:36:23.921Z,99938.88
2022-11-15T17:38:57.999Z,99944.75
2022-11-15T17:41:26.436Z,99941.31
2022-11-15T17:43:53.448Z,99943.53
2022-11-15T17:46:21.438Z,99947.94
2022-11-15T17:48:51.132Z,99942.88
2022-11-15T17:51:18.936Z,99950.19
2022-11-15T17:53:47.376Z,99944.06
2022-11-15T17:56:16.562Z,99940.38
2022-11-15T17:58:48.880Z,99942.59
2022-11-15T18:01:21.237Z,99934.66
2022-11-15T18:03:48.544Z,99919.13
2022-11-15T18:06:16.099Z,99937.13
2022-11-15T18:08:46.650Z,99928.34
2022-11-15T18:11:18.877Z,99915.69
2022-11-15T18:13:52.107Z,99923.19
2022-11-15T18:16:21.992Z,99921.00
2022-11-15T18:18:49.225Z,99916.03
2022-11-15T18:21:22.377Z,99924.81
2022-11-15T18:23:53.059Z,99912.44
2022-11-15T18:26:27.242Z,99911.19
2022-11-15T18:29:02.225Z,99918.13
2022-11-15T18:31:30.916Z,99913.03
2022-11-15T18:34:00.005Z,99907.75
2022-11-15T18:36:28.937Z,99899.19
2022-11-15T18:39:05.819Z,99899.41
2022-11-15T18:41:34.869Z,99908.69
2022-11-15T18:44:05.184Z,99902.22
2022-11-15T18:46:32.886Z,99902.94
2022-11-15T18:49:01.541Z,99904.44
2022-11-15T18:51:30.915Z,99898.97
2022-11-15T18:54:00.790Z,99904.59
2022-11-15T18:56:29.635Z,99907.47
2022-11-15T18:59:01.864Z,99880.69
2022-11-15T19:01:36.708Z,99884.72
2022-11-15T19:04:16.933Z,99878.31
2022-11-15T19:06:49.954Z,99872.25
2022-11-15T19:09:33.971Z,99884.03
2022-11-15T19:12:09.180Z,99881.53
2022-11-15T19:14:38.333Z,99869.38
2022-11-15T19:17:12.458Z,99872.84
2022-11-15T19:19:39.172Z,99877.97
2022-11-15T19:22:05.838Z,99863.91
2022-11-15T19:24:33.045Z,99867.72
2022-11-15T19:26:59.531Z,99861.25
2022-11-15T19:29:28.969Z,99868.41
2022-11-15T19:31:55.650Z,99871.47
2022-11-15T19:34:25.136Z,99859.28
2022-11-15T19:36:51.776Z,99854.31
2022-11-15T19:39:18.670Z,99862.41
2022-11-15T19:41:52.037Z,99855.91
2022-11-15T19:44:19.551Z,99861.22
2022-11-15T19:46:46.099Z,99859.16
2022-11-15T19:49:15.244Z,99872.75
2022-11-15T19:51:42.839Z,99866.84
2022-11-15T19:54:10.609Z,99852.97
2022-11-15T19:56:38.201Z,99851.38
2022-11-15T19:59:11.347Z,99852.16
2022-11-15T20:01:39.265Z,99846.00
2022-11-15T20:04:08.410Z,99843.75
2022-11-15T20:06:41.337Z,99848.16
2022-11-15T20:09:11.605Z,99834.22
2022-11-15T20:11:39.435Z,99844.19
2022-11-15T20:14:10.870Z,99844.97
2022-11-15T20:16:37.825Z,99836.00
2022-11-15T20:19:04.787Z,99851.41
2022-11-15T20:21:31.403Z,99837.56
2022-11-15T20:23:57.941Z,99832.84
2022-11-15T20:26:25.071Z,99829.16
2022-11-15T20:28:51.639Z,99825.13
2022-11-15T20:31:18.223Z,99833.84
2022-11-15T20:33:45.245Z,99836.66
2022-11-15T20:36:15.361Z,99834.56
2022-11-15T20:38:42.009Z,99839.28
2022-11-15T20:41:10.558Z,99838.03
2022-11-15T20:43:37.235Z,99833.75
2022-11-15T20:46:04.310Z,99839.63
2022-11-15T20:48:31.332Z,99838.84
2022-11-15T20:51:24.226Z,99842.28
2022-11-15T20:53:50.805Z,99844.38
2022-11-15T20:56:20.315Z,99837.97
2022-11-15T20:58:48.229Z,99839.59
2022-11-15T21:01:16.212Z,99839.78
2022-11-15T21:03:43.634Z,99836.72
2022-11-15T21:06:11.109Z,99836.50
2022-11-15T21:08:55.992Z,99831.63
2022-11-15T21:11:42.587Z,99839.38
2022-11-15T21:14:09.882Z,99831.97
2022-11-15T21:16:37.196Z,99824.84
2022-11-15T21:19:03.706Z,99815.06
2022-11-15T21:21:30.193Z,99813.41
2022-11-15T21:23:56.672Z,99811.00
2022-11-15T21:26:23.192Z,99818.56
2022-11-15T21:28:49.734Z,99828.31
2022-11-15T21:31:16.322Z,99809.75
2022-11-15T21:33:42.783Z,99814.25
2022-11-15T21:36:09.368Z,99819.78
2022-11-15T21:38:36.220Z,99816.66
2022-11-15T21:41:03.950Z,99829.09
2022-11-15T21:43:30.573Z,99815.28
2022-11-15T21:46:06.568Z,99807.09
2022-11-15T21:48:35.096Z,99803.19
2022-11-15T21:51:05.373Z,99804.00
2022-11-15T21:53:32.930Z,99802.59
2022-11-15T21:56:00.859Z,99801.34
2022-11-15T21:58:28.083Z,99790.38
2022-11-15T22:01:14.576Z,99798.47
2022-11-15T22:03:42.312Z,99794.59
2022-11-15T22:06:14.369Z,99785.81
2022-11-15T22:08:44.585Z,99783.16
2022-11-15T22:11:11.115Z,99784.31
2022-11-15T22:13:37.944Z,99782.50
2022-11-15T22:16:04.585Z,99781.88
2022-11-15T22:18:31.405Z,99782.25
2022-11-15T22:21:01.643Z,99784.69
2022-11-15T22:23:29.970Z,99778.16
2022-11-15T22:25:56.777Z,99765.75
2022-11-15T22:28:24.355Z,99771.44
2022-11-15T22:30:52.479Z,99772.47
2022-11-15T22:33:20.679Z,99773.28
2022-11-15T22:35:47.976Z,99776.97
2022-11-15T22:38:14.941Z,99771.44
2022-11-15T22:40:41.841Z,99771.88
2022-11-15T22:43:08.443Z,99781.63
2022-11-15T22:45:34.912Z,99773.53
2022-11-15T22:48:01.427Z,99773.06
2022-11-15T22:50:28.122Z,99772.84
2022-11-15T22:52:54.966Z,99767.53
2022-11-15T22:55:21.422Z,99776.72
2022-11-15T22:57:48.013Z,99776.72
2022-11-15T23:00:16.157Z,99785.88
2022-11-15T23:02:42.881Z,99776.72
2022-11-15T23:05:09.697Z,99775.50
2022-11-15T23:07:36.287Z,99779.53
2022-11-15T23:10:21.451Z,99779.75
2022-11-15T23:13:06.714Z,99788.94
2022-11-15T23:15:52.022Z,99791.94
2022-11-15T23:18:19.354Z,99785.38
2022-11-15T23:20:46.274Z,99791.50
2022-11-15T23:23:13.452Z,99783.53
2022-11-15T23:25:39.937Z,99791.94
2022-11-15T23:28:07.064Z,99797.72
2022-11-15T23:30:55.657Z,99792.59
2022-11-15T23:33:41.215Z,99783.69
2022-11-15T23:36:08.064Z,99777.56
2022-11-15T23:38:37.672Z,99775.34
2022-11-15T23:41:05.816Z,99779.69
2022-11-15T23:43:32.859Z,99785.22
2022-11-15T23:46:02.363Z,99784.03
2022-11-15T23:48:29.554Z,99784.25
2022-11-15T23:50:56.233Z,99797.16
2022-11-15T23:53:23.234Z,99813.13
2022-11-15T23:56:03.391Z,99819.03
2022-11-15T23:58:29.971Z,99821.53
